Flight Track Log - Related Links

Times and Time Zones

All times are in EDT time to prevent confusion due to time zone crossing. See the SKW5550 flight status page for this flight to view local times or setup timezone preferences in your user account.

Time Position Orientation Groundspeed Altitude Reporting Facility
EDT Latitude Longitude Course Direction KTS MPH feet Rate Location/Type
Fri 08:13:24 AM 44.5061 -109.0539 144° Southeast 152 175 6,200  Level Salt Lake Center
Fri 08:14:24 AM 44.4608 -109.0728 197° South 242 278 7,600 1,636 Climbing Salt Lake Center
Fri 08:15:00 AM 44.0147 -108.5112 144° Southeast  Level Estimated
Fri 08:15:25 AM 44.4772 -108.9994 73° East 244 281 9,500  Level Salt Lake Center
Fri 08:16:00 AM 43.9302 -108.4266 144° Southeast  Level Estimated
Fri 08:16:25 AM 44.5497 -108.9708 16° North 250 288 12,200  Level Salt Lake Center
Fri 08:17:00 AM 43.8457 -108.3423 144° Southeast  Level Estimated
Fri 08:17:26 AM 44.5231 -108.8833 113° Southeast 277 319 14,300  Level Salt Lake Center
Fri 08:18:00 AM 43.7611 -108.2582 144° Southeast  Level Estimated
Fri 08:18:26 AM 44.4489 -108.8658 170° South 270 311 16,000  Level Salt Lake Center
Fri 08:19:27 AM 44.3692 -108.8181 157° South 302 348 17,200 1,041 Climbing Salt Lake Center
Fri 08:20:27 AM 44.2806 -108.7683 158° South 333 383 18,100 942 Climbing Salt Lake Center
Fri 08:21:28 AM 44.1867 -108.7131 157° South 354 407 19,100 893 Climbing Salt Lake Center
Fri 08:22:28 AM 44.0917 -108.6592 158° South 367 422 19,900 893 Climbing Salt Lake Center
Fri 08:23:29 AM 43.9967 -108.6056 158° South 369 425 20,900 689 Climbing Salt Lake Center
Fri 08:24:30 AM 43.8986 -108.5503 158° South 380 437 21,300 545 Climbing Salt Lake Center
Fri 08:25:30 AM 43.7961 -108.4906 157° South 397 457 22,000 645 Climbing Salt Lake Center
Fri 08:26:31 AM 43.6922 -108.4319 158° South 403 464 22,600 694 Climbing Salt Lake Center
Fri 08:27:31 AM 43.5869 -108.3731 158° South 409 471 23,400 744 Climbing Salt Lake Center
Fri 08:28:32 AM 43.4825 -108.3144 158° South 406 467 24,100 689 Climbing Salt Lake Center
Fri 08:29:33 AM 43.3881 -108.2247 145° Southeast 413 475 24,800 645 Climbing Salt Lake Center
Fri 08:30:33 AM 43.2964 -108.1247 142° Southeast 420 483 25,400 545 Climbing Salt Lake Center
Fri 08:31:34 AM 43.2039 -108.0267 142° Southeast 421 484 25,900 496 Climbing Salt Lake Center
Fri 08:32:34 AM 43.1117 -107.9286 142° Southeast 421 484 26,400 545 Climbing Salt Lake Center
Fri 08:33:35 AM 42.9989 -107.8117 143° Southeast 425 489 27,000 590 Climbing Salt Lake Center
Fri 08:34:36 AM 42.9064 -107.7139 142° Southeast 424 488 27,600 545 Climbing Salt Lake Center
Fri 08:35:36 AM 42.8175 -107.6214 143° Southeast 420 483 28,100 545 Climbing Salt Lake Center
Fri 08:36:37 AM 42.7283 -107.5289 143° Southeast 419 482 28,700 590 Climbing Salt Lake Center
Fri 08:37:38 AM 42.6250 -107.4211 142° Southeast 418 481 29,300 545 Climbing Salt Lake Center
Fri 08:38:38 AM 42.5358 -107.3286 143° Southeast 421 484 29,800 446 Climbing Salt Lake Center
Fri 08:39:39 AM 42.4486 -107.2353 142° Southeast 419 482 30,200 492 Climbing Salt Lake Center
Fri 08:40:40 AM 42.3461 -107.1261 142° Southeast 418 481 30,800 397 Climbing Salt Lake Center
Fri 08:41:40 AM 42.2567 -107.0339 143° Southeast 422 486 31,000 99 Climbing Salt Lake Center
Fri 08:42:41 AM 42.1675 -106.9378 141° Southeast 427 491 31,000  Level Salt Lake Center
Fri 08:43:42 AM 42.0611 -106.8289 143° Southeast 428 493 31,000  Level Salt Lake Center
Fri 08:44:42 AM 41.9697 -106.7333 142° Southeast 433 498 31,000  Level Salt Lake Center
Fri 08:45:43 AM 41.8769 -106.6403 143° Southeast 434 499 31,000  Level Salt Lake Center
Fri 08:46:44 AM 41.7711 -106.5308 142° Southeast 432 497 31,000  Level Salt Lake Center
Fri 08:47:56 AM 41.6639 -106.4178 142° Southeast 434 499 31,000  Level Denver Center
Fri 08:49:09 AM 41.5731 -106.3239 142° Southeast 433 498 31,000  Level Denver Center
Fri 08:50:11 AM 41.4514 -106.1983 142° Southeast 433 498 31,000  Level Denver Center
Fri 08:51:12 AM 41.3597 -106.1069 143° Southeast 432 497 31,000  Level Denver Center
Fri 08:52:13 AM 41.2522 -105.9975 143° Southeast 436 502 31,000 -295 Level Denver Center
Fri 08:53:14 AM 41.1589 -105.9022 142° Southeast 441 507 30,400 -1,426 Descending Denver Center
Fri 08:54:15 AM 41.0464 -105.7900 143° Southeast 451 519 28,100 -2,262 Descending Denver Center
Fri 08:55:16 AM 40.9442 -105.6872 143° Southeast 450 518 25,800 -2,115 Descending Denver Center
Fri 08:56:17 AM 40.8461 -105.5894 143° Southeast 444 511 23,800 -1,869 Descending Denver Center
Fri 08:57:18 AM 40.7519 -105.4947 143° Southeast 431 496 22,000 -1,508 Descending Denver Center
Fri 08:59:20 AM 40.5836 -105.3275 143° Southeast 368 423 19,200 -1,207 Descending Denver Center
Fri 09:00:22 AM 40.5092 -105.2564 144° Southeast 340 391 18,300 -1,171 Descending Denver Center
Fri 09:01:23 AM 40.4342 -105.1800 142° Southeast 336 387 16,800 -1,672 Descending Denver Center
Fri 09:02:24 AM 40.3514 -105.1050 145° Southeast 335 386 14,900 -1,377 Descending Denver Center
Fri 09:03:25 AM 40.3114 -105.0100 119° Southeast 302 348 14,000 -1,033 Descending Denver Center
Fri 09:04:26 AM 40.2825 -104.9192 113° Southeast 275 316 12,800 -1,328 Descending Denver Center
Fri 09:05:27 AM 40.2350 -104.8417 129° Southeast 272 313 11,300 -1,377 Descending Denver Center
Fri 09:06:28 AM 40.1833 -104.7617 130° Southeast 268 308 10,000 -1,131 Descending Denver Center
Fri 09:07:29 AM 40.1183 -104.7172 152° Southeast 263 303 9,000 -738 Descending Denver Center
Fri 09:08:30 AM 40.0628 -104.6933 162° South 214 246 8,500 -683 Descending Denver Center
Fri 09:09:32 AM 40.0086 -104.6944 181° South 196 226 7,600 -927 Descending Denver Center
Fri 09:10:33 AM 39.9542 -104.6956 181° South 196 226 6,600 -934 Descending Denver Center
Fri 09:11:34 AM 39.9075 -104.6958 180° South 159 183 5,700 -590 Descending Denver Center
Fri 09:12:35 AM 39.8772 -104.6956 180° South 125 144 5,400 -295 Descending Denver Center

Login

Don't have an account? Register now (free) for customized features, flight alerts, and more!